createdAt,value
2019-01-06T00:01:11.627Z,78.40
2019-01-06T00:04:37.284Z,78.30
2019-01-06T00:07:56.452Z,78.20
2019-01-06T00:19:05.001Z,78.20
2019-01-06T00:25:54.722Z,78.20
2019-01-06T00:29:03.780Z,78.20
2019-01-06T01:35:37.924Z,76.90
2019-01-06T01:39:06.796Z,77.70
2019-01-06T01:42:24.062Z,77.70
2019-01-06T01:45:34.114Z,77.70
2019-01-06T01:48:40.726Z,77.70
2019-01-06T01:52:01.188Z,77.80
2019-01-06T01:55:08.633Z,77.90
2019-01-06T02:09:56.670Z,78.00
2019-01-06T02:13:22.014Z,78.10
2019-01-06T02:16:32.522Z,78.30
2019-01-06T02:19:39.809Z,78.40
2019-01-06T02:22:54.330Z,78.50
2019-01-06T02:26:20.548Z,78.60
2019-01-06T02:29:27.796Z,78.70
2019-01-06T02:32:41.444Z,79.00
2019-01-06T02:36:04.444Z,79.20
2019-01-06T02:39:13.510Z,79.40
2019-01-06T02:42:22.709Z,79.30
2019-01-06T02:45:42.284Z,79.50
2019-01-06T02:48:56.140Z,79.60
2019-01-06T02:52:06.576Z,79.80
2019-01-06T03:09:35.546Z,80.20
2019-01-06T03:12:50.093Z,80.40
2019-01-06T03:16:06.778Z,80.20
2019-01-06T03:19:16.629Z,80.30
2019-01-06T03:22:28.318Z,80.20
2019-01-06T03:25:43.599Z,80.00
2019-01-06T03:28:57.045Z,80.10
2019-01-06T03:32:07.611Z,80.00
2019-01-06T03:35:22.622Z,80.20
2019-01-06T03:38:33.353Z,80.20
2019-01-06T03:41:53.136Z,80.00
2019-01-06T03:45:15.954Z,79.90
2019-01-06T03:48:25.240Z,79.80
2019-01-06T03:51:35.630Z,79.80
2019-01-06T03:54:49.056Z,79.90
2019-01-06T03:57:59.744Z,80.00
2019-01-06T04:01:17.693Z,79.90
2019-01-06T04:08:23.838Z,80.00
2019-01-06T04:11:33.683Z,79.90
2019-01-06T04:14:43.040Z,80.00
2019-01-06T04:28:48.376Z,80.30
2019-01-06T04:31:58.953Z,79.90
2019-01-06T04:35:22.796Z,80.00
2019-01-06T04:38:33.981Z,80.00
2019-01-06T04:41:43.836Z,80.10
2019-01-06T04:44:53.609Z,79.20
2019-01-06T04:47:58.538Z,80.00
2019-01-06T04:51:08.430Z,80.00
2019-01-06T04:54:35.438Z,80.00
2019-01-06T04:57:45.184Z,80.00
2019-01-06T05:00:56.910Z,80.10
2019-01-06T05:04:27.648Z,80.10
2019-01-06T05:07:56.870Z,80.10
2019-01-06T05:11:16.499Z,80.00
2019-01-06T05:14:25.643Z,80.00
2019-01-06T05:17:54.368Z,80.10
2019-01-06T05:21:03.267Z,80.10
2019-01-06T05:24:22.638Z,80.20
2019-01-06T05:27:36.178Z,80.20
2019-01-06T05:31:06.810Z,80.20
2019-01-06T05:34:32.643Z,80.20
2019-01-06T05:37:39.398Z,80.20
2019-01-06T05:41:10.982Z,80.30
2019-01-06T05:44:31.379Z,80.40
2019-01-06T05:47:43.518Z,80.30
2019-01-06T05:51:02.596Z,80.40
2019-01-06T05:54:25.818Z,80.40
2019-01-06T05:57:35.874Z,80.40
2019-01-06T06:00:47.364Z,80.30
2019-01-06T06:03:57.529Z,81.30
2019-01-06T06:07:27.039Z,81.30
2019-01-06T06:10:52.554Z,81.30
2019-01-06T06:14:09.318Z,81.80
2019-01-06T06:17:18.307Z,82.00
2019-01-06T06:20:30.553Z,82.10
2019-01-06T06:23:58.695Z,82.20
2019-01-06T06:27:14.390Z,81.90
2019-01-06T06:30:23.516Z,82.30
2019-01-06T06:33:46.379Z,82.30
2019-01-06T06:36:55.407Z,82.00
2019-01-06T06:40:04.647Z,82.00
2019-01-06T06:43:18.676Z,82.30
2019-01-06T06:46:29.569Z,82.50
2019-01-06T06:49:50.171Z,82.50
2019-01-06T06:53:01.262Z,82.70
2019-01-06T06:56:14.595Z,82.70
2019-01-06T06:59:25.357Z,82.80
2019-01-06T07:03:03.685Z,82.50
2019-01-06T07:06:14.101Z,82.70
2019-01-06T07:09:23.587Z,83.10
2019-01-06T07:12:32.529Z,82.70
2019-01-06T07:15:45.801Z,82.90
2019-01-06T07:18:54.988Z,82.70
2019-01-06T07:22:11.092Z,82.60
2019-01-06T07:25:19.200Z,82.90
2019-01-06T07:28:41.809Z,82.90
2019-01-06T07:32:04.401Z,82.90
2019-01-06T07:35:14.968Z,82.80
2019-01-06T07:38:24.928Z,82.70
2019-01-06T07:41:33.756Z,82.70
2019-01-06T07:44:52.822Z,82.90
2019-01-06T07:48:11.899Z,82.80
2019-01-06T07:51:46.646Z,82.90
2019-01-06T07:54:56.361Z,82.80
2019-01-06T07:58:15.142Z,82.80
2019-01-06T08:01:31.963Z,82.90
2019-01-06T08:04:48.316Z,82.80
2019-01-06T08:07:58.006Z,82.80
2019-01-06T08:11:08.724Z,82.80
2019-01-06T08:14:17.521Z,82.90
2019-01-06T08:17:39.649Z,82.60
2019-01-06T08:20:54.598Z,82.70
2019-01-06T08:24:07.733Z,82.70
2019-01-06T08:27:18.072Z,82.60
2019-01-06T08:30:26.177Z,82.50
2019-01-06T08:33:48.538Z,82.40
2019-01-06T08:37:04.249Z,82.40
2019-01-06T08:40:12.469Z,82.30
2019-01-06T08:43:35.114Z,82.20
2019-01-06T08:46:44.043Z,82.10
2019-01-06T08:49:55.611Z,82.20
2019-01-06T08:53:04.063Z,82.10
2019-01-06T08:56:29.668Z,81.80
2019-01-06T08:59:37.993Z,81.80
2019-01-06T09:02:47.132Z,81.60
2019-01-06T09:06:16.032Z,81.40
2019-01-06T09:09:35.094Z,81.40
2019-01-06T09:12:47.303Z,81.30
2019-01-06T09:15:58.277Z,81.30
2019-01-06T09:19:13.711Z,81.10
2019-01-06T09:22:20.423Z,81.10
2019-01-06T09:25:41.177Z,80.90
2019-01-06T09:29:02.802Z,80.80
2019-01-06T09:32:12.623Z,80.60
2019-01-06T09:35:43.225Z,80.40
2019-01-06T09:38:51.987Z,80.20
2019-01-06T09:42:08.919Z,80.00
2019-01-06T09:45:17.233Z,79.90
2019-01-06T09:48:26.459Z,79.60
2019-01-06T09:51:43.900Z,79.40
2019-01-06T09:55:13.206Z,79.40
2019-01-06T09:58:25.022Z,79.20
2019-01-06T10:01:33.427Z,79.10
2019-01-06T10:04:45.345Z,79.00
2019-01-06T10:08:01.160Z,78.90
2019-01-06T10:11:09.329Z,78.90
2019-01-06T10:14:18.064Z,78.80
2019-01-06T10:17:41.011Z,78.60
2019-01-06T10:20:58.855Z,78.70
2019-01-06T10:24:25.402Z,78.60
2019-01-06T10:27:27.476Z,78.70
2019-01-06T10:30:52.439Z,78.60
2019-01-06T10:34:05.083Z,78.60
2019-01-06T10:37:14.335Z,78.40
2019-01-06T10:40:40.106Z,78.40
2019-01-06T10:43:50.049Z,78.40
2019-01-06T10:46:59.956Z,78.40
2019-01-06T10:50:20.883Z,78.30
2019-01-06T10:53:50.278Z,78.10
2019-01-06T10:57:03.659Z,78.20
2019-01-06T11:00:11.932Z,78.20
2019-01-06T11:03:40.109Z,78.20
2019-01-06T11:06:59.251Z,78.10
2019-01-06T11:10:07.178Z,78.00
2019-01-06T11:13:12.264Z,78.10
2019-01-06T11:16:21.063Z,78.20
2019-01-06T11:19:35.817Z,78.10
2019-01-06T11:22:44.251Z,78.20
2019-01-06T11:26:04.089Z,78.20
2019-01-06T11:29:31.298Z,78.20
2019-01-06T11:32:50.117Z,78.40
2019-01-06T11:35:58.481Z,78.40
2019-01-06T11:39:07.907Z,78.40
2019-01-06T11:42:27.077Z,78.50
2019-01-06T11:45:42.540Z,78.60
2019-01-06T11:49:00.709Z,78.70
2019-01-06T11:52:21.074Z,78.70
2019-01-06T11:55:48.884Z,78.80
2019-01-06T11:59:01.266Z,78.90
2019-01-06T12:02:13.906Z,79.00
2019-01-06T13:08:00.445Z,80.50
2019-01-06T13:11:15.861Z,81.10
2019-01-06T13:14:25.171Z,80.90
2019-01-06T13:17:41.289Z,81.10
2019-01-06T13:21:07.876Z,81.20
2019-01-06T13:24:34.349Z,81.40
2019-01-06T13:27:59.818Z,81.40
2019-01-06T13:31:31.058Z,81.40
2019-01-06T13:34:47.834Z,81.60
2019-01-06T13:38:15.479Z,81.80
2019-01-06T13:41:29.909Z,81.70
2019-01-06T13:44:47.425Z,81.80
2019-01-06T13:48:06.621Z,82.00
2019-01-06T13:51:16.062Z,82.20
2019-01-06T13:54:30.370Z,82.00
2019-01-06T13:57:57.687Z,82.10
2019-01-06T14:01:08.513Z,82.20
2019-01-06T14:04:12.163Z,82.20
2019-01-06T14:07:21.813Z,82.60
2019-01-06T14:10:34.842Z,82.50
2019-01-06T14:13:47.817Z,82.30
2019-01-06T14:16:56.231Z,82.40
2019-01-06T14:20:06.497Z,82.70
2019-01-06T14:23:15.127Z,82.70
2019-01-06T14:26:24.264Z,82.60
2019-01-06T14:29:32.368Z,82.70
2019-01-06T14:32:56.193Z,82.80
2019-01-06T14:36:07.072Z,82.70
2019-01-06T14:39:18.836Z,82.70
2019-01-06T14:42:55.993Z,82.60
2019-01-06T14:46:16.942Z,82.90
2019-01-06T14:49:25.039Z,82.80
2019-01-06T14:52:38.467Z,82.90
2019-01-06T14:56:03.920Z,82.80
2019-01-06T14:59:10.063Z,82.60
2019-01-06T15:02:33.891Z,82.70
2019-01-06T15:06:02.416Z,82.80
2019-01-06T15:09:26.529Z,82.80
2019-01-06T15:12:52.415Z,82.70
2019-01-06T15:16:00.545Z,82.70
2019-01-06T15:22:32.583Z,82.80
2019-01-06T15:25:42.284Z,82.70
2019-01-06T15:29:03.105Z,82.90
2019-01-06T15:32:28.087Z,83.00
2019-01-06T15:35:54.128Z,82.80
2019-01-06T15:39:07.259Z,82.80
2019-01-06T15:42:19.470Z,82.80
2019-01-06T15:45:27.381Z,82.70
2019-01-06T15:48:36.207Z,83.00
2019-01-06T15:52:00.807Z,82.80
2019-01-06T15:55:27.238Z,82.90
2019-01-06T15:58:42.592Z,82.90
2019-01-06T16:02:00.574Z,82.80
2019-01-06T16:05:12.711Z,83.00
2019-01-06T16:08:21.814Z,82.70
2019-01-06T16:11:41.908Z,82.90
2019-01-06T16:14:55.398Z,83.20
2019-01-06T16:18:15.119Z,82.60
2019-01-06T16:21:40.744Z,83.10
2019-01-06T16:24:49.397Z,83.00
2019-01-06T16:28:02.185Z,83.00
2019-01-06T16:31:14.912Z,83.00
2019-01-06T16:34:24.250Z,82.90
2019-01-06T16:37:34.916Z,82.90
2019-01-06T16:40:57.871Z,83.40
2019-01-06T16:44:04.988Z,83.50
2019-01-06T16:47:20.939Z,83.60
2019-01-06T16:50:34.496Z,83.30
2019-01-06T16:53:43.531Z,83.20
2019-01-06T16:56:59.627Z,83.50
2019-01-06T17:00:12.350Z,83.80
2019-01-06T18:53:23.122Z,84.20
2019-01-06T18:56:41.424Z,84.90
2019-01-06T18:59:44.163Z,84.90
2019-01-06T19:03:00.018Z,85.10
2019-01-06T19:06:12.946Z,85.10
2019-01-06T19:09:33.139Z,85.00
2019-01-06T19:12:38.791Z,85.20
2019-01-06T19:15:46.737Z,85.90
2019-01-06T19:18:56.241Z,85.00
2019-01-06T19:22:16.341Z,85.10
2019-01-06T19:25:26.493Z,85.10
2019-01-06T19:28:35.421Z,85.10
2019-01-06T19:32:04.822Z,85.70
2019-01-06T19:35:17.655Z,85.50
2019-01-06T19:38:34.575Z,84.80
2019-01-06T19:41:45.698Z,85.40
2019-01-06T19:44:54.886Z,84.80
2019-01-06T19:48:00.906Z,84.80
2019-01-06T19:51:16.956Z,84.70
2019-01-06T19:54:42.806Z,84.70
2019-01-06T19:57:57.670Z,84.80
2019-01-06T20:01:07.699Z,84.60
2019-01-06T20:04:22.132Z,84.60
2019-01-06T20:07:46.507Z,84.50
2019-01-06T20:11:05.625Z,84.50
2019-01-06T20:14:14.864Z,84.50
2019-01-06T20:17:23.084Z,84.60
2019-01-06T20:20:31.700Z,84.50
2019-01-06T20:23:41.731Z,84.50
2019-01-06T20:27:02.767Z,84.40
2019-01-06T20:30:28.895Z,84.60
2019-01-06T20:33:38.133Z,84.60
2019-01-06T20:36:47.485Z,84.50
2019-01-06T20:40:00.805Z,84.50
2019-01-06T20:43:14.663Z,84.40
2019-01-06T20:46:23.990Z,84.40
2019-01-06T20:49:37.184Z,84.40
2019-01-06T20:53:00.178Z,84.40
2019-01-06T20:56:22.226Z,84.40
2019-01-06T20:59:37.810Z,84.40
2019-01-06T21:02:47.876Z,84.40
2019-01-06T21:06:03.424Z,84.40
2019-01-06T21:09:15.044Z,84.40
2019-01-06T21:12:33.745Z,84.30
2019-01-06T21:15:47.451Z,84.30
2019-01-06T21:18:54.057Z,84.20
2019-01-06T21:22:10.237Z,84.10
2019-01-06T21:25:18.340Z,84.10
2019-01-06T21:28:28.298Z,84.10
2019-01-06T21:31:42.966Z,84.10
2019-01-06T21:34:52.965Z,84.10
2019-01-06T21:38:06.445Z,84.10
2019-01-06T21:41:26.341Z,84.10
2019-01-06T21:44:35.485Z,84.00
2019-01-06T21:47:44.637Z,84.00
2019-01-06T21:50:57.344Z,83.80
2019-01-06T21:54:14.547Z,83.80
2019-01-06T21:57:34.354Z,83.80
2019-01-06T22:00:56.375Z,83.80
2019-01-06T22:04:04.821Z,83.70
2019-01-06T22:07:21.729Z,83.70
2019-01-06T22:10:30.022Z,83.60
2019-01-06T22:13:43.886Z,83.70
2019-01-06T22:16:53.514Z,83.60
2019-01-06T22:20:10.124Z,83.50
2019-01-06T22:23:32.132Z,83.50
2019-01-06T22:26:42.419Z,83.50
2019-01-06T22:29:51.460Z,83.60
2019-01-06T22:33:04.583Z,83.60
2019-01-06T22:36:11.936Z,83.50
2019-01-06T22:39:27.677Z,83.50
2019-01-06T22:42:37.532Z,83.60
2019-01-06T22:45:54.647Z,83.60
2019-01-06T22:49:04.710Z,83.50
2019-01-06T22:52:21.248Z,83.60
2019-01-06T22:55:36.999Z,83.60
2019-01-06T22:58:46.652Z,83.60
2019-01-06T23:02:09.144Z,83.60
2019-01-06T23:05:17.416Z,83.60
2019-01-06T23:08:27.378Z,83.70
2019-01-06T23:11:52.886Z,83.70
2019-01-06T23:15:03.853Z,83.60
2019-01-06T23:18:23.140Z,83.70
2019-01-06T23:21:58.803Z,83.70
2019-01-06T23:25:18.362Z,83.70
2019-01-06T23:28:26.383Z,84.40
2019-01-06T23:31:35.825Z,83.70
2019-01-06T23:34:48.000Z,84.40
2019-01-06T23:38:01.276Z,83.60
2019-01-06T23:41:11.319Z,83.60
2019-01-06T23:44:36.323Z,83.50
2019-01-06T23:47:53.656Z,83.60
2019-01-06T23:51:04.157Z,84.10
2019-01-06T23:54:19.421Z,83.40
2019-01-06T23:57:33.830Z,83.20
